Hefei Luogang International Airport
ZSOF : now visible

Airfield :











YOU CAN JOIN US ON...

 
LOGIN :

Register | Disclaimer

   EN    FR    IT 

 









Legend :    VFR   Marginal VFR   IFR   Intensive IFR   Very Intensive IFR
Visi :
Ceiling :
>= 8 km
>= 3000ft
5 to 8 km
1000 to 3000 ft
1500m to 5 km
500 to 1000 ft
800 to 1500m
200 to 500 ft
< 800m
< 200 ft
Symbols :   Thunderstorms  Fog  Heavy snow  Heavy precipitations  Wind > 20 kt






- Airport Elevation : 108 ft
- IATA code : HFE


ZSOF - Hefei Luogang International

CURRENT METAR :
  • 212300Z 10002MPS 2400 BR NSC 16/16 Q1011 BECMG AT2350 3000

EXPIRED METARs :
  • 212200Z VRB01MPS 1300 R15/1600D BCFG BR NSC 15/15 Q1010 BECMG AT2330 1600
  • 212100Z 31001MPS 1600 BCFG BR NSC 15/14 Q1010 BECMG AT2200 1400
  • 212000Z 11001MPS 2500 BR NSC 15/15 Q1010 NOSIG
  • 211900Z 09001MPS 3000 BR NSC 16/15 Q1009 BECMG AT2000 2800

TAF TAF ZSOF
Valid from the 22 at 00:00 until the 23 at 00:00 UTC


212102Z 2200/2224 10003MPS 3000 BR NSC TX24/2206Z TN16/2222Z
ZSHA FIR / Asia



MET'MAP, your aeronautical weather chart ! - Copyright ORBIFLY December 2007 - Disclaimer

ORBIFLY MET'MAP TEAM :

Programming & Development : Alexandra Zaïnal
Original concept : Baudouin d'Aumeries
Technical & hardware support : Manuel Goepfert
Assistance : Marc-Olivier Méhu




SOURCES & CREDITS :

   NOAA       Earth
Advisory